createdAt,value
2022-08-20T00:00:42.638Z,46.17
2022-08-20T00:03:15.185Z,46.08
2022-08-20T00:05:49.592Z,46.10
2022-08-20T00:08:17.923Z,46.17
2022-08-20T00:10:46.246Z,46.63
2022-08-20T00:13:20.261Z,46.51
2022-08-20T00:15:48.106Z,46.42
2022-08-20T00:18:15.414Z,46.79
2022-08-20T00:20:47.030Z,47.14
2022-08-20T00:23:14.763Z,47.10
2022-08-20T00:25:43.485Z,46.92
2022-08-20T00:28:10.939Z,47.25
2022-08-20T00:30:39.828Z,47.41
2022-08-20T00:33:10.537Z,47.28
2022-08-20T00:35:43.109Z,47.54
2022-08-20T00:38:10.426Z,47.71
2022-08-20T00:40:56.595Z,47.56
2022-08-20T00:43:30.965Z,48.03
2022-08-20T00:46:00.582Z,48.10
2022-08-20T00:48:32.138Z,48.79
2022-08-20T00:51:07.646Z,49.05
2022-08-20T00:53:36.083Z,49.95
2022-08-20T00:56:05.348Z,50.54
2022-08-20T00:58:33.205Z,51.08
2022-08-20T01:01:00.503Z,51.27
2022-08-20T01:03:27.571Z,51.74
2022-08-20T01:05:54.515Z,52.09
2022-08-20T01:08:24.804Z,52.68
2022-08-20T01:10:54.074Z,52.37
2022-08-20T01:13:23.821Z,52.16
2022-08-20T01:15:54.895Z,51.77
2022-08-20T01:18:25.226Z,51.64
2022-08-20T01:20:56.843Z,51.14
2022-08-20T01:23:32.434Z,51.22
2022-08-20T01:26:09.090Z,51.28
2022-08-20T01:28:50.738Z,50.84
2022-08-20T01:31:21.525Z,50.92
2022-08-20T01:33:51.023Z,50.56
2022-08-20T01:36:23.467Z,50.56
2022-08-20T01:38:54.036Z,50.70
2022-08-20T01:42:13.172Z,50.79
2022-08-20T01:44:43.082Z,50.88
2022-08-20T01:47:13.018Z,50.53
2022-08-20T01:49:45.515Z,50.92
2022-08-20T01:52:22.956Z,51.01
2022-08-20T01:54:49.917Z,50.98
2022-08-20T01:57:19.210Z,50.85
2022-08-20T01:59:48.004Z,50.96
2022-08-20T02:02:15.014Z,51.23
2022-08-20T02:04:42.629Z,51.34
2022-08-20T02:07:15.975Z,51.38
2022-08-20T02:09:43.888Z,51.52
2022-08-20T02:12:14.463Z,51.78
2022-08-20T02:14:44.125Z,52.11
2022-08-20T02:17:12.585Z,52.43
2022-08-20T02:19:44.472Z,53.01
2022-08-20T02:22:23.675Z,53.71
2022-08-20T02:24:51.616Z,54.53
2022-08-20T02:27:19.218Z,54.84
2022-08-20T02:29:46.932Z,55.44
2022-08-20T02:32:24.137Z,56.50
2022-08-20T02:35:00.026Z,56.81
2022-08-20T02:37:28.382Z,57.14
2022-08-20T02:39:55.360Z,58.50
2022-08-20T02:42:22.402Z,58.50
2022-08-20T02:44:49.360Z,58.75
2022-08-20T02:47:17.342Z,59.39
2022-08-20T02:49:44.221Z,59.46
2022-08-20T02:52:11.266Z,60.00
2022-08-20T02:54:38.238Z,60.38
2022-08-20T02:57:05.451Z,60.96
2022-08-20T02:59:32.435Z,61.36
2022-08-20T03:02:00.516Z,61.21
2022-08-20T03:04:31.200Z,61.74
2022-08-20T03:06:59.397Z,62.00
2022-08-20T03:09:26.657Z,62.30
2022-08-20T03:11:54.545Z,61.83
2022-08-20T03:14:21.679Z,62.59
2022-08-20T03:16:48.738Z,62.65
2022-08-20T03:19:15.910Z,62.40
2022-08-20T03:21:43.005Z,61.98
2022-08-20T03:24:10.051Z,62.41
2022-08-20T03:26:37.051Z,62.29
2022-08-20T03:29:04.073Z,61.78
2022-08-20T03:31:31.226Z,61.82
2022-08-20T03:33:58.155Z,62.04
2022-08-20T03:36:28.137Z,62.15
2022-08-20T03:39:01.331Z,62.12
2022-08-20T03:41:29.270Z,62.68
2022-08-20T03:43:56.404Z,62.61
2022-08-20T03:46:24.125Z,62.75
2022-08-20T03:49:00.366Z,62.58
2022-08-20T03:51:56.996Z,62.93
2022-08-20T03:54:19.248Z,63.35
2022-08-20T03:56:46.213Z,63.70
2022-08-20T03:59:13.168Z,63.76
2022-08-20T04:01:45.803Z,64.34
2022-08-20T04:04:14.358Z,64.28
2022-08-20T04:06:42.554Z,64.58
2022-08-20T04:09:11.954Z,64.55
2022-08-20T04:11:40.428Z,64.94
2022-08-20T04:14:07.746Z,65.25
2022-08-20T04:16:37.835Z,65.10
2022-08-20T04:19:05.307Z,65.20
2022-08-20T04:21:33.643Z,65.08
2022-08-20T04:24:05.585Z,65.05
2022-08-20T04:26:35.399Z,65.23
2022-08-20T04:29:02.409Z,65.10
2022-08-20T04:31:35.333Z,65.23
2022-08-20T04:34:03.945Z,65.33
2022-08-20T04:36:31.256Z,65.33
2022-08-20T04:38:58.271Z,64.83
2022-08-20T04:41:25.282Z,64.76
2022-08-20T04:43:54.544Z,64.83
2022-08-20T04:46:24.044Z,65.42
2022-08-20T04:48:51.281Z,64.38
2022-08-20T04:51:18.899Z,64.39
2022-08-20T04:53:52.251Z,64.29
2022-08-20T04:56:24.152Z,64.18
2022-08-20T04:58:52.990Z,63.84
2022-08-20T05:01:19.996Z,63.65
2022-08-20T05:03:49.930Z,63.46
2022-08-20T05:06:18.310Z,63.11
2022-08-20T05:08:45.708Z,63.37
2022-08-20T05:11:34.881Z,63.04
2022-08-20T05:14:02.019Z,62.81
2022-08-20T05:16:28.961Z,63.15
2022-08-20T05:18:55.901Z,62.68
2022-08-20T05:21:23.161Z,62.69
2022-08-20T05:23:50.117Z,62.06
2022-08-20T05:26:20.495Z,61.14
2022-08-20T05:28:57.854Z,61.31
2022-08-20T05:31:31.399Z,61.23
2022-08-20T05:34:10.421Z,61.01
2022-08-20T05:36:44.876Z,59.95
2022-08-20T05:39:12.926Z,59.56
2022-08-20T05:41:40.795Z,59.45
2022-08-20T05:44:11.001Z,59.66
2022-08-20T05:46:41.301Z,59.21
2022-08-20T05:49:15.719Z,59.62
2022-08-20T05:51:43.436Z,58.05
2022-08-20T05:54:10.472Z,58.35
2022-08-20T05:56:37.926Z,57.75
2022-08-20T05:59:08.135Z,57.22
2022-08-20T06:01:37.983Z,58.12
2022-08-20T06:04:24.102Z,57.21
2022-08-20T06:07:02.665Z,56.69
2022-08-20T06:09:31.884Z,56.15
2022-08-20T06:12:02.169Z,56.19
2022-08-20T06:14:29.421Z,55.99
2022-08-20T06:17:02.764Z,54.99
2022-08-20T06:19:32.298Z,54.77
2022-08-20T06:22:00.402Z,55.56
2022-08-20T06:24:27.427Z,54.74
2022-08-20T06:26:59.679Z,54.48
2022-08-20T06:29:28.333Z,54.84
2022-08-20T06:31:55.292Z,55.17
2022-08-20T06:34:23.644Z,54.27
2022-08-20T06:36:50.635Z,54.36
2022-08-20T06:39:17.631Z,54.46
2022-08-20T06:41:45.230Z,54.28
2022-08-20T06:44:12.194Z,53.54
2022-08-20T06:46:39.203Z,53.32
2022-08-20T06:49:07.585Z,52.35
2022-08-20T06:51:35.350Z,53.01
2022-08-20T06:54:02.263Z,51.85
2022-08-20T06:56:29.228Z,52.25
2022-08-20T06:58:56.116Z,52.13
2022-08-20T07:01:23.279Z,51.58
2022-08-20T07:03:55.379Z,51.10
2022-08-20T07:06:25.994Z,51.20
2022-08-20T07:08:56.045Z,50.47
2022-08-20T07:11:27.751Z,50.70
2022-08-20T07:13:56.937Z,50.32
2022-08-20T07:16:24.411Z,49.71
2022-08-20T07:18:51.527Z,48.62
2022-08-20T07:21:18.511Z,49.03
2022-08-20T07:23:45.559Z,47.88
2022-08-20T07:26:13.414Z,48.22
2022-08-20T07:28:40.796Z,48.26
2022-08-20T07:31:26.987Z,47.90
2022-08-20T07:33:54.275Z,47.55
2022-08-20T07:36:21.407Z,46.83
2022-08-20T07:38:51.129Z,46.91
2022-08-20T07:41:19.469Z,46.74
2022-08-20T07:43:47.381Z,46.46
2022-08-20T07:46:17.950Z,45.64
2022-08-20T07:48:50.574Z,46.73
2022-08-20T07:51:20.177Z,46.23
2022-08-20T07:53:48.533Z,45.54
2022-08-20T07:56:19.722Z,44.84
2022-08-20T07:58:52.605Z,45.08
2022-08-20T08:01:22.599Z,44.41
2022-08-20T08:03:50.715Z,44.07
2022-08-20T08:06:29.374Z,44.48
2022-08-20T08:09:13.375Z,44.14
2022-08-20T08:11:49.193Z,44.25
2022-08-20T08:14:23.696Z,44.01
2022-08-20T08:16:53.086Z,43.98
2022-08-20T08:19:20.444Z,44.23
2022-08-20T08:21:47.627Z,43.42
2022-08-20T08:24:20.312Z,43.85
2022-08-20T08:26:50.375Z,42.35
2022-08-20T08:29:17.807Z,42.62
2022-08-20T08:31:45.230Z,42.29
2022-08-20T08:34:13.260Z,41.75
2022-08-20T08:36:40.464Z,42.00
2022-08-20T08:39:07.497Z,41.27
2022-08-20T08:41:40.641Z,41.22
2022-08-20T08:44:12.991Z,40.23
2022-08-20T08:46:43.513Z,40.47
2022-08-20T08:49:14.619Z,40.56
2022-08-20T08:51:57.517Z,40.57
2022-08-20T08:54:29.444Z,40.71
2022-08-20T08:56:56.719Z,40.23
2022-08-20T08:59:24.010Z,40.36
2022-08-20T09:01:57.122Z,39.32
2022-08-20T09:04:33.404Z,39.88
2022-08-20T09:07:03.077Z,38.86
2022-08-20T09:09:37.095Z,38.66
2022-08-20T09:12:12.830Z,38.60
2022-08-20T09:14:40.131Z,38.36
2022-08-20T09:17:07.919Z,38.08
2022-08-20T09:19:35.286Z,37.91
2022-08-20T09:22:13.338Z,37.21
2022-08-20T09:24:40.604Z,37.50
2022-08-20T09:27:07.945Z,37.79
2022-08-20T09:29:35.626Z,38.16
2022-08-20T09:32:12.021Z,39.60
2022-08-20T09:34:42.734Z,37.80
2022-08-20T09:37:10.575Z,37.96
2022-08-20T09:39:37.610Z,37.13
2022-08-20T09:42:10.033Z,35.95
2022-08-20T09:44:37.549Z,36.06
2022-08-20T09:47:04.758Z,35.96
2022-08-20T09:49:31.904Z,35.73
2022-08-20T09:52:01.512Z,35.45
2022-08-20T09:54:30.361Z,35.38
2022-08-20T09:56:58.839Z,34.76
2022-08-20T09:59:27.020Z,33.99
2022-08-20T10:01:53.914Z,33.58
2022-08-20T10:04:21.045Z,33.08
2022-08-20T10:06:47.978Z,33.22
2022-08-20T10:09:15.168Z,32.96
2022-08-20T10:11:42.177Z,32.17
2022-08-20T10:14:11.625Z,32.48
2022-08-20T10:16:38.553Z,32.10
2022-08-20T10:19:06.054Z,32.29
2022-08-20T10:21:38.082Z,31.78
2022-08-20T10:24:05.878Z,31.18
2022-08-20T10:26:32.884Z,31.37
2022-08-20T10:28:59.886Z,31.33
2022-08-20T10:31:27.083Z,31.35
2022-08-20T10:33:54.081Z,31.23
2022-08-20T10:36:21.033Z,32.21
2022-08-20T10:38:49.299Z,31.52
2022-08-20T10:41:16.319Z,31.12
2022-08-20T10:43:43.342Z,31.69
2022-08-20T10:46:10.294Z,31.54
2022-08-20T10:48:37.553Z,31.08
2022-08-20T10:51:04.846Z,31.78
2022-08-20T10:53:32.047Z,31.67
2022-08-20T10:55:59.451Z,31.48
2022-08-20T10:58:27.331Z,31.91
2022-08-20T11:01:05.118Z,30.92
2022-08-20T11:03:32.077Z,30.67
2022-08-20T11:05:59.079Z,30.95
2022-08-20T11:08:34.460Z,30.80
2022-08-20T11:11:04.463Z,31.57
2022-08-20T11:13:33.401Z,31.23
2022-08-20T11:16:01.321Z,31.45
2022-08-20T11:18:28.520Z,31.50
2022-08-20T11:20:56.311Z,31.25
2022-08-20T11:23:23.244Z,31.04
2022-08-20T11:25:50.719Z,30.77
2022-08-20T11:28:31.426Z,30.90
2022-08-20T11:30:59.449Z,31.00
2022-08-20T11:33:26.392Z,30.84
2022-08-20T11:35:53.381Z,30.34
2022-08-20T11:38:20.370Z,29.35
2022-08-20T11:40:47.929Z,29.69
2022-08-20T11:43:16.957Z,29.88
2022-08-20T11:45:52.919Z,29.96
2022-08-20T11:48:20.131Z,29.94
2022-08-20T11:50:48.322Z,29.67
2022-08-20T11:53:15.133Z,30.53
2022-08-20T11:55:42.640Z,31.27
2022-08-20T11:58:10.797Z,32.17
2022-08-20T12:00:37.678Z,32.51
2022-08-20T12:03:09.585Z,35.52
2022-08-20T12:05:42.996Z,37.96
2022-08-20T12:08:27.290Z,37.49
2022-08-20T12:11:01.553Z,37.18
2022-08-20T12:13:48.424Z,38.13
2022-08-20T12:16:19.964Z,36.46
2022-08-20T12:18:47.920Z,38.00
2022-08-20T12:21:15.237Z,37.50
2022-08-20T12:23:42.387Z,37.35
2022-08-20T12:26:09.432Z,37.24
2022-08-20T12:28:36.951Z,37.97
2022-08-20T12:31:03.982Z,37.32
2022-08-20T12:33:31.251Z,38.51
2022-08-20T12:35:58.317Z,43.16
2022-08-20T12:38:25.457Z,44.31
2022-08-20T12:40:52.412Z,44.62
2022-08-20T12:43:24.237Z,48.49
2022-08-20T12:45:52.157Z,45.52
2022-08-20T12:48:21.876Z,42.66
2022-08-20T12:50:50.316Z,48.98
2022-08-20T12:53:17.629Z,49.04
2022-08-20T12:55:45.073Z,50.67
2022-08-20T12:58:12.108Z,53.25
2022-08-20T13:00:47.250Z,54.46
2022-08-20T13:03:17.266Z,56.21
2022-08-20T13:05:45.487Z,57.83
2022-08-20T13:08:13.047Z,58.01
2022-08-20T13:10:44.584Z,58.76
2022-08-20T13:13:13.393Z,59.97
2022-08-20T13:15:40.935Z,59.62
2022-08-20T13:18:08.495Z,59.93
2022-08-20T13:20:37.105Z,60.52
2022-08-20T13:23:05.652Z,60.71
2022-08-20T13:25:33.135Z,56.57
2022-08-20T13:28:02.435Z,57.13
2022-08-20T13:30:29.591Z,53.88
2022-08-20T13:32:56.815Z,52.77
2022-08-20T13:35:23.997Z,53.24
2022-08-20T13:37:51.191Z,51.79
2022-08-20T13:40:18.766Z,48.19
2022-08-20T13:42:45.932Z,48.06
2022-08-20T13:45:13.407Z,49.23
2022-08-20T13:47:42.285Z,50.23
2022-08-20T13:50:16.379Z,50.58
2022-08-20T13:52:44.046Z,53.47
2022-08-20T13:55:14.798Z,59.73
2022-08-20T13:57:42.392Z,67.11
2022-08-20T14:00:13.475Z,74.78
2022-08-20T14:02:42.015Z,81.01
2022-08-20T14:05:09.883Z,85.80
2022-08-20T14:07:38.279Z,92.99
2022-08-20T14:10:13.933Z,93.85
2022-08-20T14:12:41.231Z,98.69
2022-08-20T14:15:11.895Z,100.00
2022-08-20T14:17:42.550Z,100.00
2022-08-20T14:20:13.150Z,100.00
2022-08-20T14:22:41.553Z,100.00
2022-08-20T14:25:11.787Z,100.00
2022-08-20T14:27:39.458Z,100.00
2022-08-20T14:30:09.527Z,100.00
2022-08-20T14:32:36.770Z,100.00
2022-08-20T14:35:04.447Z,100.00
2022-08-20T14:37:38.289Z,100.00
2022-08-20T14:40:09.396Z,100.00
2022-08-20T14:42:36.864Z,100.00
2022-08-20T14:45:06.637Z,100.00
2022-08-20T14:47:36.664Z,100.00
2022-08-20T14:50:08.851Z,100.00
2022-08-20T14:52:36.910Z,100.00
2022-08-20T14:55:10.473Z,100.00
2022-08-20T14:57:38.693Z,100.00
2022-08-20T15:00:10.095Z,100.00
2022-08-20T15:02:37.821Z,100.00
2022-08-20T15:05:07.179Z,100.00
2022-08-20T15:07:37.199Z,100.00
2022-08-20T15:10:10.130Z,100.00
2022-08-20T15:12:37.138Z,100.00
2022-08-20T15:15:15.373Z,100.00
2022-08-20T15:17:58.095Z,100.00
2022-08-20T15:20:28.258Z,100.00
2022-08-20T15:22:55.669Z,100.00
2022-08-20T15:25:25.521Z,100.00
2022-08-20T15:28:00.714Z,100.00
2022-08-20T15:30:31.051Z,100.00
2022-08-20T15:32:58.261Z,100.00
2022-08-20T15:35:27.401Z,100.00
2022-08-20T15:37:57.571Z,100.00
2022-08-20T15:40:28.432Z,100.00
2022-08-20T15:42:57.843Z,100.00
2022-08-20T15:45:25.791Z,100.00
2022-08-20T15:48:15.484Z,100.00
2022-08-20T15:50:48.218Z,100.00
2022-08-20T15:53:27.953Z,100.00
2022-08-20T15:56:21.851Z,100.00
2022-08-20T15:59:04.032Z,100.00
2022-08-20T16:01:44.318Z,100.00
2022-08-20T16:04:26.722Z,100.00
2022-08-20T16:07:00.645Z,100.00
2022-08-20T16:09:45.891Z,100.00
2022-08-20T16:12:19.854Z,100.00
2022-08-20T16:14:48.243Z,100.00
2022-08-20T16:17:21.965Z,100.00
2022-08-20T16:20:02.352Z,100.00
2022-08-20T16:22:31.682Z,100.00
2022-08-20T16:24:58.802Z,100.00
2022-08-20T16:27:31.860Z,100.00
2022-08-20T16:30:34.836Z,100.00
2022-08-20T16:33:31.578Z,100.00
2022-08-20T16:36:15.044Z,100.00
2022-08-20T16:38:48.405Z,100.00
2022-08-20T16:41:21.745Z,100.00
2022-08-20T16:43:56.375Z,100.00
2022-08-20T16:46:34.026Z,100.00
2022-08-20T16:49:11.450Z,100.00
2022-08-20T16:51:43.672Z,100.00
2022-08-20T16:54:12.891Z,100.00
2022-08-20T16:56:56.929Z,100.00
2022-08-20T16:59:27.086Z,100.00
2022-08-20T17:02:10.909Z,100.00
2022-08-20T17:04:59.333Z,100.00
2022-08-20T17:07:42.553Z,100.00
2022-08-20T17:10:25.272Z,100.00
2022-08-20T17:13:01.024Z,100.00
2022-08-20T17:15:31.318Z,100.00
2022-08-20T17:17:58.553Z,100.00
2022-08-20T17:20:29.024Z,100.00
2022-08-20T17:23:11.176Z,100.00
2022-08-20T17:25:38.646Z,100.00
2022-08-20T17:28:20.700Z,100.00
2022-08-20T17:30:48.181Z,100.00
2022-08-20T17:33:27.090Z,100.00
2022-08-20T17:36:04.968Z,100.00
2022-08-20T17:38:40.080Z,100.00
2022-08-20T17:41:17.592Z,100.00
2022-08-20T17:43:45.093Z,100.00
2022-08-20T17:46:19.288Z,100.00
2022-08-20T17:48:48.289Z,100.00
2022-08-20T17:51:21.625Z,100.00
2022-08-20T17:53:57.065Z,99.86
2022-08-20T17:56:32.694Z,98.69
2022-08-20T17:59:07.454Z,99.07
2022-08-20T18:01:37.796Z,99.28
2022-08-20T18:04:05.012Z,98.80
2022-08-20T18:06:58.174Z,93.20
2022-08-20T18:09:38.555Z,88.42
2022-08-20T18:12:34.130Z,86.66
2022-08-20T18:15:24.461Z,88.00
2022-08-20T18:18:00.796Z,88.21
2022-08-20T18:20:49.569Z,90.59
2022-08-20T18:23:16.397Z,91.25
2022-08-20T18:25:53.294Z,93.14
2022-08-20T18:28:35.177Z,92.74
2022-08-20T18:31:09.137Z,100.00
2022-08-20T18:33:37.998Z,100.00
2022-08-20T18:36:19.703Z,100.00
2022-08-20T18:39:23.705Z,100.00
2022-08-20T18:42:05.682Z,100.00
2022-08-20T18:44:39.504Z,100.00
2022-08-20T18:47:19.807Z,100.00
2022-08-20T18:49:47.472Z,100.00
2022-08-20T18:52:27.640Z,100.00
2022-08-20T18:54:57.532Z,100.00
2022-08-20T18:57:27.283Z,100.00
2022-08-20T19:00:13.365Z,100.00
2022-08-20T19:02:57.860Z,100.00
2022-08-20T19:05:40.506Z,100.00
2022-08-20T19:08:08.103Z,100.00
2022-08-20T19:10:37.954Z,100.00
2022-08-20T19:13:33.456Z,100.00
2022-08-20T19:16:08.990Z,100.00
2022-08-20T19:18:53.261Z,100.00
2022-08-20T19:21:26.133Z,100.00
2022-08-20T19:23:58.105Z,100.00
2022-08-20T19:26:29.285Z,100.00
2022-08-20T19:29:02.094Z,100.00
2022-08-20T19:31:32.865Z,100.00
2022-08-20T19:34:19.993Z,100.00
2022-08-20T19:37:35.519Z,100.00
2022-08-20T19:39:58.614Z,100.00
2022-08-20T19:42:32.072Z,100.00
2022-08-20T19:45:06.214Z,100.00
2022-08-20T19:47:37.807Z,100.00
2022-08-20T19:50:23.951Z,100.00
2022-08-20T19:53:06.912Z,100.00
2022-08-20T19:55:37.281Z,100.00
2022-08-20T19:58:18.809Z,100.00
2022-08-20T20:00:55.498Z,100.00
2022-08-20T20:03:28.659Z,100.00
2022-08-20T20:06:15.168Z,100.00
2022-08-20T20:08:55.769Z,100.00
2022-08-20T20:11:30.539Z,100.00
2022-08-20T20:14:04.349Z,100.00
2022-08-20T20:16:32.583Z,100.00
2022-08-20T20:19:24.692Z,100.00
2022-08-20T20:21:49.852Z,100.00
2022-08-20T20:24:29.737Z,100.00
2022-08-20T20:26:59.457Z,100.00
2022-08-20T20:29:33.674Z,100.00
2022-08-20T20:32:11.971Z,100.00
2022-08-20T20:34:55.486Z,100.00
2022-08-20T20:37:50.906Z,100.00
2022-08-20T20:40:26.332Z,100.00
2022-08-20T20:43:22.139Z,100.00
2022-08-20T20:45:59.399Z,100.00
2022-08-20T20:48:33.810Z,100.00
2022-08-20T20:51:12.240Z,100.00
2022-08-20T20:53:49.561Z,100.00
2022-08-20T20:56:32.201Z,100.00
2022-08-20T20:59:03.983Z,100.00
2022-08-20T21:01:48.658Z,100.00
2022-08-20T21:04:22.641Z,100.00
2022-08-20T21:06:52.302Z,100.00
2022-08-20T21:09:20.491Z,100.00
2022-08-20T21:11:47.942Z,100.00
2022-08-20T21:14:16.254Z,100.00
2022-08-20T21:16:44.145Z,100.00
2022-08-20T21:19:12.272Z,100.00
2022-08-20T21:21:40.045Z,100.00
2022-08-20T21:24:07.371Z,100.00
2022-08-20T21:26:34.993Z,100.00
2022-08-20T21:29:02.130Z,100.00
2022-08-20T21:31:36.247Z,100.00
2022-08-20T21:34:03.448Z,100.00
2022-08-20T21:36:30.476Z,100.00
2022-08-20T21:38:57.442Z,100.00
2022-08-20T21:41:29.559Z,100.00
2022-08-20T21:43:58.974Z,100.00
2022-08-20T21:46:28.896Z,100.00
2022-08-20T21:48:56.647Z,100.00
2022-08-20T21:51:23.803Z,100.00
2022-08-20T21:53:50.720Z,100.00
2022-08-20T21:56:18.392Z,100.00
2022-08-20T21:58:47.346Z,100.00
2022-08-20T22:01:15.214Z,100.00
2022-08-20T22:03:43.030Z,100.00
2022-08-20T22:06:12.503Z,100.00
2022-08-20T22:08:39.825Z,100.00
2022-08-20T22:11:09.038Z,100.00
2022-08-20T22:13:36.557Z,100.00
2022-08-20T22:16:07.558Z,100.00
2022-08-20T22:18:35.076Z,100.00
2022-08-20T22:21:03.304Z,100.00
2022-08-20T22:23:30.365Z,100.00
2022-08-20T22:25:57.322Z,100.00
2022-08-20T22:28:24.455Z,100.00
2022-08-20T22:30:51.470Z,100.00
2022-08-20T22:33:23.390Z,100.00
2022-08-20T22:35:54.729Z,100.00
2022-08-20T22:38:22.995Z,100.00
2022-08-20T22:40:50.078Z,100.00
2022-08-20T22:43:17.086Z,100.00
2022-08-20T22:45:47.389Z,100.00
2022-08-20T22:48:17.013Z,100.00
2022-08-20T22:50:45.167Z,100.00
2022-08-20T22:53:13.901Z,100.00
2022-08-20T22:55:40.859Z,100.00
2022-08-20T22:58:08.648Z,100.00
2022-08-20T23:00:38.762Z,100.00
2022-08-20T23:03:07.229Z,100.00
2022-08-20T23:05:37.440Z,100.00
2022-08-20T23:08:06.949Z,100.00
2022-08-20T23:10:36.164Z,100.00
2022-08-20T23:13:03.170Z,100.00
2022-08-20T23:15:33.050Z,100.00
2022-08-20T23:18:08.104Z,100.00
2022-08-20T23:20:35.758Z,100.00
2022-08-20T23:23:02.995Z,100.00
2022-08-20T23:25:30.230Z,100.00
2022-08-20T23:28:04.197Z,100.00
2022-08-20T23:30:31.466Z,100.00
2022-08-20T23:33:01.555Z,100.00
2022-08-20T23:35:32.906Z,100.00
2022-08-20T23:38:00.677Z,100.00
2022-08-20T23:40:29.386Z,100.00
2022-08-20T23:42:57.669Z,100.00
2022-08-20T23:45:25.839Z,100.00
2022-08-20T23:47:53.286Z,100.00
2022-08-20T23:50:24.747Z,100.00
2022-08-20T23:52:52.616Z,100.00
2022-08-20T23:55:20.462Z,100.00
2022-08-20T23:57:47.416Z,100.00
